sensor_id;sensor_type;location;lat;lon;timestamp;P1;durP1;ratioP1;P2;durP2;ratioP2
64065;SDS011;50318;54.760;9.408;2022-11-20T00:00:53;6.70;;;3.65;;
64065;SDS011;50318;54.760;9.408;2022-11-20T00:03:19;6.30;;;3.20;;
64065;SDS011;50318;54.760;9.408;2022-11-20T00:05:45;5.22;;;3.25;;
64065;SDS011;50318;54.760;9.408;2022-11-20T00:08:11;7.03;;;3.47;;
64065;SDS011;50318;54.760;9.408;2022-11-20T00:10:37;7.38;;;3.40;;
64065;SDS011;50318;54.760;9.408;2022-11-20T00:13:04;7.10;;;3.58;;
64065;SDS011;50318;54.760;9.408;2022-11-20T00:15:30;6.72;;;3.47;;
64065;SDS011;50318;54.760;9.408;2022-11-20T00:17:56;6.87;;;3.53;;
64065;SDS011;50318;54.760;9.408;2022-11-20T00:20:22;8.65;;;3.85;;
64065;SDS011;50318;54.760;9.408;2022-11-20T00:22:49;7.10;;;3.42;;
64065;SDS011;50318;54.760;9.408;2022-11-20T00:25:15;6.72;;;3.50;;
64065;SDS011;50318;54.760;9.408;2022-11-20T00:27:41;6.20;;;3.80;;
64065;SDS011;50318;54.760;9.408;2022-11-20T00:30:07;6.53;;;3.92;;
64065;SDS011;50318;54.760;9.408;2022-11-20T00:32:39;6.07;;;3.63;;
64065;SDS011;50318;54.760;9.408;2022-11-20T00:35:05;6.23;;;3.50;;
64065;SDS011;50318;54.760;9.408;2022-11-20T00:37:31;6.18;;;3.28;;
64065;SDS011;50318;54.760;9.408;2022-11-20T00:39:57;6.50;;;3.65;;
64065;SDS011;50318;54.760;9.408;2022-11-20T00:42:26;7.30;;;3.90;;
64065;SDS011;50318;54.760;9.408;2022-11-20T00:44:53;7.37;;;3.70;;
64065;SDS011;50318;54.760;9.408;2022-11-20T00:47:18;6.60;;;4.38;;
64065;SDS011;50318;54.760;9.408;2022-11-20T00:49:44;8.27;;;3.90;;
64065;SDS011;50318;54.760;9.408;2022-11-20T00:52:12;7.27;;;3.40;;
64065;SDS011;50318;54.760;9.408;2022-11-20T00:54:59;5.27;;;3.23;;
64065;SDS011;50318;54.760;9.408;2022-11-20T00:57:25;4.82;;;3.35;;
64065;SDS011;50318;54.760;9.408;2022-11-20T00:59:50;6.80;;;4.50;;
64065;SDS011;50318;54.760;9.408;2022-11-20T01:02:16;5.78;;;3.58;;
64065;SDS011;50318;54.760;9.408;2022-11-20T01:04:42;6.47;;;3.75;;
64065;SDS011;50318;54.760;9.408;2022-11-20T01:07:08;7.43;;;4.22;;
64065;SDS011;50318;54.760;9.408;2022-11-20T01:09:34;6.73;;;3.57;;
64065;SDS011;50318;54.760;9.408;2022-11-20T01:11:59;4.90;;;3.35;;
64065;SDS011;50318;54.760;9.408;2022-11-20T01:14:25;4.35;;;3.03;;
64065;SDS011;50318;54.760;9.408;2022-11-20T01:16:51;8.00;;;4.07;;
64065;SDS011;50318;54.760;9.408;2022-11-20T01:19:26;5.83;;;3.70;;
64065;SDS011;50318;54.760;9.408;2022-11-20T01:21:52;6.27;;;3.30;;
64065;SDS011;50318;54.760;9.408;2022-11-20T01:24:20;5.93;;;3.60;;
64065;SDS011;50318;54.760;9.408;2022-11-20T01:26:47;7.82;;;4.30;;
64065;SDS011;50318;54.760;9.408;2022-11-20T01:29:24;6.32;;;3.80;;
64065;SDS011;50318;54.760;9.408;2022-11-20T01:31:50;9.00;;;4.60;;
64065;SDS011;50318;54.760;9.408;2022-11-20T01:34:18;5.53;;;3.40;;
64065;SDS011;50318;54.760;9.408;2022-11-20T01:36:56;10.70;;;5.15;;
64065;SDS011;50318;54.760;9.408;2022-11-20T01:39:23;5.65;;;3.53;;
64065;SDS011;50318;54.760;9.408;2022-11-20T01:41:51;6.28;;;3.03;;
64065;SDS011;50318;54.760;9.408;2022-11-20T01:47:06;5.65;;;3.25;;
64065;SDS011;50318;54.760;9.408;2022-11-20T01:49:39;3.85;;;2.90;;
64065;SDS011;50318;54.760;9.408;2022-11-20T01:52:12;4.70;;;2.95;;
64065;SDS011;50318;54.760;9.408;2022-11-20T01:55:02;4.25;;;2.75;;
64065;SDS011;50318;54.760;9.408;2022-11-20T01:57:32;4.30;;;3.10;;
64065;SDS011;50318;54.760;9.408;2022-11-20T02:00:05;5.10;;;3.00;;
64065;SDS011;50318;54.760;9.408;2022-11-20T02:02:51;4.75;;;3.00;;
64065;SDS011;50318;54.760;9.408;2022-11-20T02:08:15;4.47;;;3.25;;
64065;SDS011;50318;54.760;9.408;2022-11-20T02:10:47;4.78;;;3.03;;
64065;SDS011;50318;54.760;9.408;2022-11-20T02:13:13;4.15;;;3.00;;
64065;SDS011;50318;54.760;9.408;2022-11-20T02:16:04;6.50;;;2.88;;
64065;SDS011;50318;54.760;9.408;2022-11-20T02:18:35;5.30;;;3.30;;
64065;SDS011;50318;54.760;9.408;2022-11-20T02:21:12;4.50;;;3.20;;
64065;SDS011;50318;54.760;9.408;2022-11-20T02:26:23;5.82;;;3.30;;
64065;SDS011;50318;54.760;9.408;2022-11-20T02:28:52;5.70;;;3.70;;
64065;SDS011;50318;54.760;9.408;2022-11-20T02:31:19;5.13;;;3.70;;
64065;SDS011;50318;54.760;9.408;2022-11-20T02:33:45;5.43;;;3.60;;
64065;SDS011;50318;54.760;9.408;2022-11-20T02:36:11;5.53;;;3.70;;
64065;SDS011;50318;54.760;9.408;2022-11-20T02:38:40;6.20;;;3.85;;
64065;SDS011;50318;54.760;9.408;2022-11-20T02:41:07;4.47;;;3.90;;
64065;SDS011;50318;54.760;9.408;2022-11-20T02:43:33;5.53;;;3.70;;
64065;SDS011;50318;54.760;9.408;2022-11-20T02:45:58;4.82;;;3.80;;
64065;SDS011;50318;54.760;9.408;2022-11-20T02:48:24;5.72;;;3.90;;
64065;SDS011;50318;54.760;9.408;2022-11-20T02:50:50;5.78;;;4.00;;
64065;SDS011;50318;54.760;9.408;2022-11-20T02:53:15;5.68;;;4.22;;
64065;SDS011;50318;54.760;9.408;2022-11-20T02:55:41;4.85;;;3.92;;
64065;SDS011;50318;54.760;9.408;2022-11-20T02:58:30;5.40;;;3.73;;
64065;SDS011;50318;54.760;9.408;2022-11-20T03:00:56;5.70;;;4.15;;
64065;SDS011;50318;54.760;9.408;2022-11-20T03:03:22;6.82;;;4.18;;
64065;SDS011;50318;54.760;9.408;2022-11-20T03:05:48;5.80;;;4.50;;
64065;SDS011;50318;54.760;9.408;2022-11-20T03:08:13;5.30;;;4.40;;
64065;SDS011;50318;54.760;9.408;2022-11-20T03:10:39;5.75;;;4.80;;
64065;SDS011;50318;54.760;9.408;2022-11-20T03:13:05;5.97;;;4.70;;
64065;SDS011;50318;54.760;9.408;2022-11-20T03:15:30;7.00;;;4.85;;
64065;SDS011;50318;54.760;9.408;2022-11-20T03:17:56;6.78;;;4.70;;
64065;SDS011;50318;54.760;9.408;2022-11-20T03:20:22;6.20;;;5.00;;
64065;SDS011;50318;54.760;9.408;2022-11-20T03:22:48;6.18;;;5.00;;
64065;SDS011;50318;54.760;9.408;2022-11-20T03:25:14;5.47;;;4.90;;
64065;SDS011;50318;54.760;9.408;2022-11-20T03:27:39;5.80;;;4.70;;
64065;SDS011;50318;54.760;9.408;2022-11-20T03:30:05;7.17;;;5.17;;
64065;SDS011;50318;54.760;9.408;2022-11-20T03:32:32;6.85;;;5.15;;
64065;SDS011;50318;54.760;9.408;2022-11-20T03:34:57;5.70;;;4.67;;
64065;SDS011;50318;54.760;9.408;2022-11-20T03:37:23;5.85;;;4.70;;
64065;SDS011;50318;54.760;9.408;2022-11-20T03:39:49;5.65;;;5.00;;
64065;SDS011;50318;54.760;9.408;2022-11-20T03:42:15;6.45;;;5.05;;
64065;SDS011;50318;54.760;9.408;2022-11-20T03:45:03;5.43;;;4.70;;
64065;SDS011;50318;54.760;9.408;2022-11-20T03:47:29;6.97;;;5.20;;
64065;SDS011;50318;54.760;9.408;2022-11-20T03:49:55;6.00;;;5.28;;
64065;SDS011;50318;54.760;9.408;2022-11-20T03:52:21;5.85;;;4.90;;
64065;SDS011;50318;54.760;9.408;2022-11-20T03:54:46;7.25;;;5.20;;
64065;SDS011;50318;54.760;9.408;2022-11-20T03:57:12;6.05;;;5.10;;
64065;SDS011;50318;54.760;9.408;2022-11-20T03:59:38;4.87;;;4.40;;
64065;SDS011;50318;54.760;9.408;2022-11-20T04:02:04;5.63;;;4.93;;
64065;SDS011;50318;54.760;9.408;2022-11-20T04:04:29;4.90;;;4.30;;
64065;SDS011;50318;54.760;9.408;2022-11-20T04:06:55;4.93;;;4.20;;
64065;SDS011;50318;54.760;9.408;2022-11-20T04:09:21;4.57;;;4.10;;
64065;SDS011;50318;54.760;9.408;2022-11-20T04:11:47;4.93;;;3.90;;
64065;SDS011;50318;54.760;9.408;2022-11-20T04:14:14;4.90;;;4.00;;
64065;SDS011;50318;54.760;9.408;2022-11-20T04:16:41;5.10;;;4.30;;
64065;SDS011;50318;54.760;9.408;2022-11-20T04:19:12;4.63;;;3.65;;
64065;SDS011;50318;54.760;9.408;2022-11-20T04:21:41;4.25;;;3.70;;
64065;SDS011;50318;54.760;9.408;2022-11-20T04:24:08;5.05;;;3.75;;
64065;SDS011;50318;54.760;9.408;2022-11-20T04:26:36;4.33;;;3.20;;
64065;SDS011;50318;54.760;9.408;2022-11-20T04:29:02;3.72;;;3.20;;
64065;SDS011;50318;54.760;9.408;2022-11-20T04:31:29;3.67;;;3.27;;
64065;SDS011;50318;54.760;9.408;2022-11-20T04:34:00;3.92;;;3.40;;
64065;SDS011;50318;54.760;9.408;2022-11-20T04:36:28;4.18;;;3.40;;
64065;SDS011;50318;54.760;9.408;2022-11-20T04:38:58;5.18;;;4.10;;
64065;SDS011;50318;54.760;9.408;2022-11-20T04:41:30;4.90;;;4.37;;
64065;SDS011;50318;54.760;9.408;2022-11-20T04:43:58;5.47;;;4.80;;
64065;SDS011;50318;54.760;9.408;2022-11-20T04:46:27;5.07;;;4.40;;
64065;SDS011;50318;54.760;9.408;2022-11-20T04:48:54;5.53;;;4.88;;
64065;SDS011;50318;54.760;9.408;2022-11-20T04:51:20;6.10;;;4.80;;
64065;SDS011;50318;54.760;9.408;2022-11-20T04:53:46;5.80;;;5.10;;
64065;SDS011;50318;54.760;9.408;2022-11-20T04:56:12;6.63;;;5.57;;
64065;SDS011;50318;54.760;9.408;2022-11-20T04:58:39;6.40;;;5.10;;
64065;SDS011;50318;54.760;9.408;2022-11-20T05:01:06;6.88;;;5.30;;
64065;SDS011;50318;54.760;9.408;2022-11-20T05:03:34;6.65;;;5.75;;
64065;SDS011;50318;54.760;9.408;2022-11-20T05:06:00;7.07;;;5.72;;
64065;SDS011;50318;54.760;9.408;2022-11-20T05:08:28;6.80;;;6.10;;
64065;SDS011;50318;54.760;9.408;2022-11-20T05:10:54;6.78;;;6.07;;
64065;SDS011;50318;54.760;9.408;2022-11-20T05:13:25;6.90;;;6.20;;
64065;SDS011;50318;54.760;9.408;2022-11-20T05:15:52;6.95;;;5.90;;
64065;SDS011;50318;54.760;9.408;2022-11-20T05:18:17;8.02;;;6.85;;
64065;SDS011;50318;54.760;9.408;2022-11-20T05:20:43;7.82;;;6.05;;
64065;SDS011;50318;54.760;9.408;2022-11-20T05:23:09;8.18;;;6.70;;
64065;SDS011;50318;54.760;9.408;2022-11-20T05:25:35;3.87;;;3.37;;
64065;SDS011;50318;54.760;9.408;2022-11-20T05:28:00;3.43;;;2.80;;
64065;SDS011;50318;54.760;9.408;2022-11-20T05:30:26;2.75;;;2.28;;
64065;SDS011;50318;54.760;9.408;2022-11-20T05:32:52;2.88;;;2.35;;
64065;SDS011;50318;54.760;9.408;2022-11-20T05:35:18;3.17;;;2.28;;
64065;SDS011;50318;54.760;9.408;2022-11-20T05:37:43;3.05;;;2.58;;
64065;SDS011;50318;54.760;9.408;2022-11-20T05:40:09;2.87;;;2.63;;
64065;SDS011;50318;54.760;9.408;2022-11-20T05:42:35;3.22;;;2.78;;
64065;SDS011;50318;54.760;9.408;2022-11-20T05:45:02;3.13;;;2.70;;
64065;SDS011;50318;54.760;9.408;2022-11-20T05:47:33;3.42;;;2.63;;
64065;SDS011;50318;54.760;9.408;2022-11-20T05:50:03;3.07;;;2.70;;
64065;SDS011;50318;54.760;9.408;2022-11-20T05:52:29;4.32;;;3.05;;
64065;SDS011;50318;54.760;9.408;2022-11-20T05:54:55;3.42;;;3.00;;
64065;SDS011;50318;54.760;9.408;2022-11-20T05:57:21;3.70;;;3.10;;
64065;SDS011;50318;54.760;9.408;2022-11-20T05:59:47;3.93;;;3.30;;
64065;SDS011;50318;54.760;9.408;2022-11-20T06:02:34;3.90;;;3.50;;
64065;SDS011;50318;54.760;9.408;2022-11-20T06:05:01;5.60;;;3.83;;
64065;SDS011;50318;54.760;9.408;2022-11-20T06:07:27;5.07;;;4.17;;
64065;SDS011;50318;54.760;9.408;2022-11-20T06:09:53;4.27;;;3.87;;
64065;SDS011;50318;54.760;9.408;2022-11-20T06:12:19;4.18;;;3.78;;
64065;SDS011;50318;54.760;9.408;2022-11-20T06:14:44;5.25;;;4.70;;
64065;SDS011;50318;54.760;9.408;2022-11-20T06:17:10;5.13;;;4.22;;
64065;SDS011;50318;54.760;9.408;2022-11-20T06:19:36;5.30;;;4.80;;
64065;SDS011;50318;54.760;9.408;2022-11-20T06:22:25;5.90;;;5.30;;
64065;SDS011;50318;54.760;9.408;2022-11-20T06:24:50;8.35;;;5.25;;
64065;SDS011;50318;54.760;9.408;2022-11-20T06:27:16;5.50;;;4.50;;
64065;SDS011;50318;54.760;9.408;2022-11-20T06:29:42;6.03;;;4.97;;
64065;SDS011;50318;54.760;9.408;2022-11-20T06:32:08;5.87;;;4.90;;
64065;SDS011;50318;54.760;9.408;2022-11-20T06:34:34;5.40;;;4.63;;
64065;SDS011;50318;54.760;9.408;2022-11-20T06:36:59;4.80;;;4.30;;
64065;SDS011;50318;54.760;9.408;2022-11-20T06:39:25;5.20;;;4.50;;
64065;SDS011;50318;54.760;9.408;2022-11-20T06:41:51;4.60;;;4.10;;
64065;SDS011;50318;54.760;9.408;2022-11-20T06:44:16;5.63;;;4.50;;
64065;SDS011;50318;54.760;9.408;2022-11-20T06:46:42;5.43;;;4.30;;
64065;SDS011;50318;54.760;9.408;2022-11-20T06:49:08;5.80;;;4.68;;
64065;SDS011;50318;54.760;9.408;2022-11-20T06:51:34;4.60;;;4.10;;
64065;SDS011;50318;54.760;9.408;2022-11-20T06:53:59;5.40;;;4.50;;
64065;SDS011;50318;54.760;9.408;2022-11-20T06:56:26;4.90;;;4.20;;
64065;SDS011;50318;54.760;9.408;2022-11-20T06:58:52;5.22;;;4.22;;
64065;SDS011;50318;54.760;9.408;2022-11-20T07:01:20;4.03;;;3.50;;
64065;SDS011;50318;54.760;9.408;2022-11-20T07:04:04;4.18;;;3.40;;
64065;SDS011;50318;54.760;9.408;2022-11-20T07:06:30;3.92;;;3.45;;
64065;SDS011;50318;54.760;9.408;2022-11-20T07:08:57;5.38;;;3.75;;
64065;SDS011;50318;54.760;9.408;2022-11-20T07:11:23;4.10;;;3.70;;
64065;SDS011;50318;54.760;9.408;2022-11-20T07:13:49;3.97;;;3.50;;
64065;SDS011;50318;54.760;9.408;2022-11-20T07:16:15;5.07;;;3.70;;
64065;SDS011;50318;54.760;9.408;2022-11-20T07:18:41;4.05;;;3.20;;
64065;SDS011;50318;54.760;9.408;2022-11-20T07:21:08;5.07;;;3.47;;
64065;SDS011;50318;54.760;9.408;2022-11-20T07:23:35;4.13;;;3.72;;
64065;SDS011;50318;54.760;9.408;2022-11-20T07:26:04;4.10;;;3.70;;
64065;SDS011;50318;54.760;9.408;2022-11-20T07:28:31;4.28;;;3.85;;
64065;SDS011;50318;54.760;9.408;2022-11-20T07:30:57;4.38;;;3.55;;
64065;SDS011;50318;54.760;9.408;2022-11-20T07:33:23;4.00;;;3.20;;
64065;SDS011;50318;54.760;9.408;2022-11-20T07:35:49;4.57;;;3.37;;
64065;SDS011;50318;54.760;9.408;2022-11-20T07:38:14;3.90;;;3.23;;
64065;SDS011;50318;54.760;9.408;2022-11-20T07:40:40;3.65;;;3.20;;
64065;SDS011;50318;54.760;9.408;2022-11-20T07:43:06;4.15;;;3.15;;
64065;SDS011;50318;54.760;9.408;2022-11-20T07:45:32;3.60;;;3.30;;
64065;SDS011;50318;54.760;9.408;2022-11-20T07:47:57;3.80;;;3.30;;
64065;SDS011;50318;54.760;9.408;2022-11-20T07:50:23;3.87;;;3.43;;
64065;SDS011;50318;54.760;9.408;2022-11-20T07:52:49;3.85;;;3.22;;
64065;SDS011;50318;54.760;9.408;2022-11-20T07:55:15;3.80;;;3.40;;
64065;SDS011;50318;54.760;9.408;2022-11-20T07:57:41;4.32;;;3.35;;
64065;SDS011;50318;54.760;9.408;2022-11-20T08:00:07;3.88;;;3.40;;
64065;SDS011;50318;54.760;9.408;2022-11-20T08:02:40;4.50;;;3.70;;
64065;SDS011;50318;54.760;9.408;2022-11-20T08:05:07;4.60;;;3.75;;
64065;SDS011;50318;54.760;9.408;2022-11-20T08:07:35;4.37;;;3.67;;
64065;SDS011;50318;54.760;9.408;2022-11-20T08:10:04;4.18;;;3.78;;
64065;SDS011;50318;54.760;9.408;2022-11-20T08:12:44;4.70;;;4.10;;
64065;SDS011;50318;54.760;9.408;2022-11-20T08:15:32;4.87;;;4.40;;
64065;SDS011;50318;54.760;9.408;2022-11-20T08:18:05;5.53;;;4.40;;
64065;SDS011;50318;54.760;9.408;2022-11-20T08:20:33;5.53;;;3.97;;
64065;SDS011;50318;54.760;9.408;2022-11-20T08:23:03;4.30;;;3.90;;
64065;SDS011;50318;54.760;9.408;2022-11-20T08:25:34;4.47;;;3.78;;
64065;SDS011;50318;54.760;9.408;2022-11-20T08:28:03;4.73;;;3.67;;
64065;SDS011;50318;54.760;9.408;2022-11-20T08:30:30;5.18;;;3.97;;
64065;SDS011;50318;54.760;9.408;2022-11-20T08:33:00;3.53;;;3.20;;
64065;SDS011;50318;54.760;9.408;2022-11-20T08:35:27;4.68;;;3.50;;
64065;SDS011;50318;54.760;9.408;2022-11-20T08:37:53;4.88;;;3.67;;
64065;SDS011;50318;54.760;9.408;2022-11-20T08:40:19;4.03;;;3.40;;
64065;SDS011;50318;54.760;9.408;2022-11-20T08:42:48;4.03;;;3.63;;
64065;SDS011;50318;54.760;9.408;2022-11-20T08:45:15;4.97;;;3.80;;
64065;SDS011;50318;54.760;9.408;2022-11-20T08:47:41;4.43;;;3.58;;
64065;SDS011;50318;54.760;9.408;2022-11-20T08:50:08;4.60;;;3.78;;
64065;SDS011;50318;54.760;9.408;2022-11-20T08:52:35;4.20;;;3.73;;
64065;SDS011;50318;54.760;9.408;2022-11-20T08:55:00;4.97;;;3.58;;
64065;SDS011;50318;54.760;9.408;2022-11-20T08:57:26;4.28;;;3.75;;
64065;SDS011;50318;54.760;9.408;2022-11-20T08:59:55;4.00;;;3.60;;
64065;SDS011;50318;54.760;9.408;2022-11-20T09:02:21;4.75;;;3.50;;
64065;SDS011;50318;54.760;9.408;2022-11-20T09:04:47;4.43;;;3.42;;
64065;SDS011;50318;54.760;9.408;2022-11-20T09:07:12;3.90;;;3.50;;
64065;SDS011;50318;54.760;9.408;2022-11-20T09:09:38;4.22;;;3.42;;
64065;SDS011;50318;54.760;9.408;2022-11-20T09:12:04;4.00;;;3.40;;
64065;SDS011;50318;54.760;9.408;2022-11-20T09:14:30;3.67;;;3.27;;
64065;SDS011;50318;54.760;9.408;2022-11-20T09:16:56;4.55;;;3.53;;
64065;SDS011;50318;54.760;9.408;2022-11-20T09:19:23;4.78;;;3.50;;
64065;SDS011;50318;54.760;9.408;2022-11-20T09:21:58;3.95;;;3.55;;
64065;SDS011;50318;54.760;9.408;2022-11-20T09:24:28;5.40;;;3.90;;
64065;SDS011;50318;54.760;9.408;2022-11-20T09:26:54;4.10;;;3.70;;
64065;SDS011;50318;54.760;9.408;2022-11-20T09:29:19;5.20;;;4.20;;
64065;SDS011;50318;54.760;9.408;2022-11-20T09:31:45;4.82;;;3.95;;
64065;SDS011;50318;54.760;9.408;2022-11-20T09:34:11;4.13;;;3.70;;
64065;SDS011;50318;54.760;9.408;2022-11-20T09:36:37;5.47;;;3.90;;
64065;SDS011;50318;54.760;9.408;2022-11-20T09:39:03;4.72;;;3.70;;
64065;SDS011;50318;54.760;9.408;2022-11-20T09:41:49;4.50;;;3.90;;
64065;SDS011;50318;54.760;9.408;2022-11-20T09:47:07;5.70;;;3.57;;
64065;SDS011;50318;54.760;9.408;2022-11-20T09:55:10;5.35;;;3.53;;
64065;SDS011;50318;54.760;9.408;2022-11-20T09:57:37;5.22;;;3.85;;
64065;SDS011;50318;54.760;9.408;2022-11-20T10:00:11;5.63;;;3.65;;
64065;SDS011;50318;54.760;9.408;2022-11-20T10:02:43;4.90;;;3.50;;
64065;SDS011;50318;54.760;9.408;2022-11-20T10:05:53;3.55;;;3.20;;
64065;SDS011;50318;54.760;9.408;2022-11-20T10:08:30;3.22;;;2.92;;
64065;SDS011;50318;54.760;9.408;2022-11-20T10:11:16;4.30;;;3.25;;
64065;SDS011;50318;54.760;9.408;2022-11-20T10:26:55;3.67;;;2.50;;
64065;SDS011;50318;54.760;9.408;2022-11-20T10:29:53;3.65;;;3.13;;
64065;SDS011;50318;54.760;9.408;2022-11-20T10:32:37;3.53;;;2.67;;
64065;SDS011;50318;54.760;9.408;2022-11-20T10:35:07;4.13;;;2.45;;
64065;SDS011;50318;54.760;9.408;2022-11-20T10:37:43;3.55;;;2.63;;
64065;SDS011;50318;54.760;9.408;2022-11-20T10:42:56;3.92;;;2.60;;
64065;SDS011;50318;54.760;9.408;2022-11-20T10:48:04;3.00;;;2.40;;
64065;SDS011;50318;54.760;9.408;2022-11-20T10:50:37;3.83;;;2.63;;
64065;SDS011;50318;54.760;9.408;2022-11-20T10:58:48;3.22;;;2.58;;
64065;SDS011;50318;54.760;9.408;2022-11-20T11:01:24;2.78;;;2.35;;
64065;SDS011;50318;54.760;9.408;2022-11-20T11:03:52;3.22;;;2.60;;
64065;SDS011;50318;54.760;9.408;2022-11-20T11:09:02;3.22;;;2.30;;
64065;SDS011;50318;54.760;9.408;2022-11-20T11:11:36;3.45;;;2.50;;
64065;SDS011;50318;54.760;9.408;2022-11-20T11:14:19;2.72;;;2.53;;
64065;SDS011;50318;54.760;9.408;2022-11-20T11:16:51;3.47;;;2.75;;
64065;SDS011;50318;54.760;9.408;2022-11-20T11:19:22;2.92;;;2.50;;
64065;SDS011;50318;54.760;9.408;2022-11-20T11:21:49;3.85;;;2.60;;
64065;SDS011;50318;54.760;9.408;2022-11-20T11:26:56;2.33;;;2.00;;
64065;SDS011;50318;54.760;9.408;2022-11-20T11:29:24;3.47;;;2.25;;
64065;SDS011;50318;54.760;9.408;2022-11-20T11:32:02;3.72;;;2.20;;
64065;SDS011;50318;54.760;9.408;2022-11-20T11:34:32;2.50;;;1.95;;
64065;SDS011;50318;54.760;9.408;2022-11-20T11:36:59;2.30;;;2.10;;
64065;SDS011;50318;54.760;9.408;2022-11-20T11:39:28;3.45;;;2.08;;
64065;SDS011;50318;54.760;9.408;2022-11-20T11:41:56;4.30;;;2.20;;
64065;SDS011;50318;54.760;9.408;2022-11-20T11:47:18;2.97;;;1.98;;
64065;SDS011;50318;54.760;9.408;2022-11-20T11:49:59;2.75;;;2.00;;
64065;SDS011;50318;54.760;9.408;2022-11-20T11:52:39;2.40;;;2.05;;
64065;SDS011;50318;54.760;9.408;2022-11-20T11:55:12;2.42;;;2.00;;
64065;SDS011;50318;54.760;9.408;2022-11-20T12:00:23;2.70;;;2.10;;
64065;SDS011;50318;54.760;9.408;2022-11-20T12:05:57;2.63;;;2.13;;
64065;SDS011;50318;54.760;9.408;2022-11-20T12:09:02;3.63;;;2.50;;
64065;SDS011;50318;54.760;9.408;2022-11-20T12:14:34;3.47;;;2.50;;
64065;SDS011;50318;54.760;9.408;2022-11-20T12:17:03;2.90;;;2.30;;
64065;SDS011;50318;54.760;9.408;2022-11-20T12:19:29;3.87;;;2.40;;
64065;SDS011;50318;54.760;9.408;2022-11-20T12:30:48;3.00;;;2.35;;
64065;SDS011;50318;54.760;9.408;2022-11-20T13:01:52;3.58;;;2.75;;
64065;SDS011;50318;54.760;9.408;2022-11-20T13:04:42;3.67;;;2.87;;
64065;SDS011;50318;54.760;9.408;2022-11-20T13:07:20;3.80;;;2.90;;
64065;SDS011;50318;54.760;9.408;2022-11-20T13:09:48;4.18;;;2.90;;
64065;SDS011;50318;54.760;9.408;2022-11-20T13:12:29;3.95;;;2.60;;
64065;SDS011;50318;54.760;9.408;2022-11-20T13:18:08;3.40;;;2.47;;
64065;SDS011;50318;54.760;9.408;2022-11-20T13:20:35;3.28;;;2.40;;
64065;SDS011;50318;54.760;9.408;2022-11-20T13:23:06;3.95;;;2.53;;
64065;SDS011;50318;54.760;9.408;2022-11-20T13:25:35;3.10;;;2.50;;
64065;SDS011;50318;54.760;9.408;2022-11-20T13:30:34;4.73;;;2.60;;
64065;SDS011;50318;54.760;9.408;2022-11-20T13:33:08;2.97;;;2.50;;
64065;SDS011;50318;54.760;9.408;2022-11-20T13:35:58;3.60;;;2.38;;
64065;SDS011;50318;54.760;9.408;2022-11-20T13:38:26;3.53;;;2.40;;
64065;SDS011;50318;54.760;9.408;2022-11-20T13:40:54;3.38;;;2.40;;
64065;SDS011;50318;54.760;9.408;2022-11-20T13:45:57;2.50;;;2.08;;
64065;SDS011;50318;54.760;9.408;2022-11-20T13:48:40;3.05;;;2.20;;
64065;SDS011;50318;54.760;9.408;2022-11-20T13:54:05;2.35;;;2.08;;
64065;SDS011;50318;54.760;9.408;2022-11-20T13:56:54;2.53;;;1.90;;
64065;SDS011;50318;54.760;9.408;2022-11-20T13:59:31;2.58;;;1.90;;
64065;SDS011;50318;54.760;9.408;2022-11-20T14:02:02;3.47;;;2.10;;
64065;SDS011;50318;54.760;9.408;2022-11-20T14:04:35;2.80;;;2.00;;
64065;SDS011;50318;54.760;9.408;2022-11-20T14:07:07;2.80;;;2.10;;
64065;SDS011;50318;54.760;9.408;2022-11-20T14:09:34;2.78;;;2.10;;
64065;SDS011;50318;54.760;9.408;2022-11-20T14:12:01;2.92;;;2.13;;
64065;SDS011;50318;54.760;9.408;2022-11-20T14:14:29;2.83;;;1.80;;
64065;SDS011;50318;54.760;9.408;2022-11-20T14:17:09;2.42;;;1.90;;
64065;SDS011;50318;54.760;9.408;2022-11-20T14:19:45;2.42;;;2.17;;
64065;SDS011;50318;54.760;9.408;2022-11-20T14:24:46;2.83;;;1.90;;
64065;SDS011;50318;54.760;9.408;2022-11-20T14:27:14;3.38;;;2.13;;
64065;SDS011;50318;54.760;9.408;2022-11-20T14:29:42;3.53;;;2.15;;
64065;SDS011;50318;54.760;9.408;2022-11-20T14:32:09;2.90;;;2.30;;
64065;SDS011;50318;54.760;9.408;2022-11-20T14:34:37;2.70;;;2.28;;
64065;SDS011;50318;54.760;9.408;2022-11-20T14:37:06;3.58;;;2.58;;
64065;SDS011;50318;54.760;9.408;2022-11-20T14:39:40;3.80;;;2.42;;
64065;SDS011;50318;54.760;9.408;2022-11-20T14:42:17;3.37;;;2.50;;
64065;SDS011;50318;54.760;9.408;2022-11-20T14:44:44;3.53;;;2.70;;
64065;SDS011;50318;54.760;9.408;2022-11-20T14:47:15;15.63;;;5.15;;
64065;SDS011;50318;54.760;9.408;2022-11-20T14:49:44;25.47;;;6.93;;
64065;SDS011;50318;54.760;9.408;2022-11-20T14:52:19;18.00;;;5.25;;
64065;SDS011;50318;54.760;9.408;2022-11-20T14:57:23;9.80;;;5.22;;
64065;SDS011;50318;54.760;9.408;2022-11-20T15:00:18;6.28;;;4.03;;
64065;SDS011;50318;54.760;9.408;2022-11-20T15:02:46;5.05;;;3.65;;
64065;SDS011;50318;54.760;9.408;2022-11-20T15:05:17;5.35;;;4.00;;
64065;SDS011;50318;54.760;9.408;2022-11-20T15:07:45;4.47;;;3.47;;
64065;SDS011;50318;54.760;9.408;2022-11-20T15:10:30;5.78;;;3.95;;
64065;SDS011;50318;54.760;9.408;2022-11-20T15:13:00;5.17;;;3.40;;
64065;SDS011;50318;54.760;9.408;2022-11-20T15:15:36;4.93;;;3.53;;
64065;SDS011;50318;54.760;9.408;2022-11-20T15:18:12;5.63;;;3.80;;
64065;SDS011;50318;54.760;9.408;2022-11-20T15:20:40;4.55;;;3.92;;
64065;SDS011;50318;54.760;9.408;2022-11-20T15:23:13;5.40;;;4.10;;
64065;SDS011;50318;54.760;9.408;2022-11-20T15:25:40;6.30;;;4.90;;
64065;SDS011;50318;54.760;9.408;2022-11-20T15:28:20;5.95;;;4.80;;
64065;SDS011;50318;54.760;9.408;2022-11-20T15:30:56;7.27;;;5.73;;
64065;SDS011;50318;54.760;9.408;2022-11-20T15:33:22;7.88;;;6.07;;
64065;SDS011;50318;54.760;9.408;2022-11-20T15:35:48;9.25;;;6.90;;
64065;SDS011;50318;54.760;9.408;2022-11-20T15:38:13;8.95;;;7.03;;
64065;SDS011;50318;54.760;9.408;2022-11-20T15:40:44;8.13;;;6.32;;
64065;SDS011;50318;54.760;9.408;2022-11-20T15:43:10;7.97;;;5.57;;
64065;SDS011;50318;54.760;9.408;2022-11-20T15:45:45;6.83;;;5.53;;
64065;SDS011;50318;54.760;9.408;2022-11-20T15:48:14;8.45;;;5.80;;
64065;SDS011;50318;54.760;9.408;2022-11-20T15:53:29;8.20;;;6.03;;
64065;SDS011;50318;54.760;9.408;2022-11-20T15:55:55;9.20;;;6.90;;
64065;SDS011;50318;54.760;9.408;2022-11-20T15:58:20;9.67;;;7.10;;
64065;SDS011;50318;54.760;9.408;2022-11-20T16:00:48;7.50;;;5.55;;
64065;SDS011;50318;54.760;9.408;2022-11-20T16:03:14;10.00;;;6.53;;
64065;SDS011;50318;54.760;9.408;2022-11-20T16:05:59;11.57;;;8.52;;
64065;SDS011;50318;54.760;9.408;2022-11-20T16:08:28;8.48;;;6.43;;
64065;SDS011;50318;54.760;9.408;2022-11-20T16:10:54;8.93;;;6.13;;
64065;SDS011;50318;54.760;9.408;2022-11-20T16:13:26;8.87;;;6.77;;
64065;SDS011;50318;54.760;9.408;2022-11-20T16:16:13;9.27;;;7.22;;
64065;SDS011;50318;54.760;9.408;2022-11-20T16:18:56;10.53;;;8.17;;
64065;SDS011;50318;54.760;9.408;2022-11-20T16:21:22;8.90;;;7.30;;
64065;SDS011;50318;54.760;9.408;2022-11-20T16:24:01;10.30;;;7.20;;
64065;SDS011;50318;54.760;9.408;2022-11-20T16:26:29;11.23;;;7.30;;
64065;SDS011;50318;54.760;9.408;2022-11-20T16:28:55;10.48;;;7.53;;
64065;SDS011;50318;54.760;9.408;2022-11-20T16:31:21;9.93;;;7.13;;
64065;SDS011;50318;54.760;9.408;2022-11-20T16:33:51;9.45;;;7.35;;
64065;SDS011;50318;54.760;9.408;2022-11-20T16:36:21;9.57;;;7.20;;
64065;SDS011;50318;54.760;9.408;2022-11-20T16:38:52;9.63;;;6.93;;
64065;SDS011;50318;54.760;9.408;2022-11-20T16:41:19;11.05;;;7.38;;
64065;SDS011;50318;54.760;9.408;2022-11-20T16:43:49;10.50;;;7.18;;
64065;SDS011;50318;54.760;9.408;2022-11-20T16:46:22;12.52;;;7.43;;
64065;SDS011;50318;54.760;9.408;2022-11-20T16:48:53;9.30;;;6.90;;
64065;SDS011;50318;54.760;9.408;2022-11-20T16:51:19;9.75;;;7.50;;
64065;SDS011;50318;54.760;9.408;2022-11-20T16:53:45;18.17;;;9.80;;
64065;SDS011;50318;54.760;9.408;2022-11-20T16:56:15;11.75;;;7.15;;